createdAt,value
2018-09-13T14:58:32.837Z,79.36
2018-09-13T15:01:02.049Z,80.40
2018-09-13T15:03:31.328Z,78.86
2018-09-13T15:06:00.823Z,78.70
2018-09-13T15:08:30.065Z,79.24
2018-09-13T15:10:59.352Z,79.15
2018-09-13T15:13:28.603Z,80.07
2018-09-13T15:15:58.164Z,79.75
2018-09-13T15:18:27.110Z,79.99
2018-09-13T15:20:56.804Z,80.69
2018-09-13T15:23:26.042Z,82.41
2018-09-13T15:25:55.359Z,83.10
2018-09-13T15:28:24.559Z,81.10
2018-09-13T15:30:53.937Z,80.66
2018-09-13T15:33:23.551Z,79.50
2018-09-13T15:35:52.763Z,80.23
2018-09-13T15:38:21.948Z,81.86
2018-09-13T15:40:51.272Z,81.56
2018-09-13T15:43:20.545Z,81.42
2018-09-13T15:47:51.208Z,82.74
2018-09-13T15:50:20.595Z,84.48
2018-09-13T15:52:49.713Z,85.25
2018-09-13T15:55:19.004Z,88.57
2018-09-13T15:57:48.187Z,90.54
2018-09-13T16:00:17.296Z,92.03
2018-09-13T16:02:46.400Z,92.30
2018-09-13T16:05:15.792Z,93.37
2018-09-13T16:07:45.139Z,93.30
2018-09-13T16:10:14.297Z,94.71
2018-09-13T16:12:43.394Z,95.16
2018-09-13T16:15:13.309Z,95.20
2018-09-13T16:17:42.673Z,96.87
2018-09-13T16:20:18.495Z,95.50
2018-09-13T16:22:47.734Z,95.59
2018-09-13T16:25:16.960Z,95.87
2018-09-13T16:27:46.223Z,96.98
2018-09-13T16:30:15.452Z,98.76
2018-09-13T16:32:44.614Z,99.25
2018-09-13T16:35:13.901Z,99.91
2018-09-13T16:37:48.308Z,99.90
2018-09-13T16:40:22.774Z,100.00
2018-09-13T16:42:57.292Z,100.00
2018-09-13T16:45:30.320Z,100.00
2018-09-13T16:48:00.989Z,100.00
2018-09-13T16:50:30.232Z,100.00
2018-09-13T16:52:59.422Z,100.00
2018-09-13T16:55:28.744Z,100.00
2018-09-13T16:57:58.036Z,100.00
2018-09-13T17:00:27.727Z,100.00
2018-09-13T17:02:56.896Z,100.00
2018-09-13T17:05:26.242Z,100.00
2018-09-13T17:07:55.431Z,100.00
2018-09-13T17:10:24.757Z,100.00
2018-09-13T17:12:53.900Z,100.00
2018-09-13T17:15:23.229Z,100.00
2018-09-13T17:17:52.396Z,100.00
2018-09-13T17:20:21.661Z,100.00
2018-09-13T17:22:50.872Z,100.00
2018-09-13T17:25:20.235Z,100.00
2018-09-13T17:27:49.415Z,100.00
2018-09-13T17:30:18.835Z,100.00
2018-09-13T17:32:48.098Z,100.00
2018-09-13T17:35:17.549Z,100.00
2018-09-13T17:37:46.816Z,100.00
2018-09-13T17:40:15.939Z,100.00
2018-09-13T17:42:45.325Z,100.00
2018-09-13T17:45:14.641Z,100.00
2018-09-13T17:47:43.660Z,100.00
2018-09-13T17:50:12.966Z,100.00
2018-09-13T17:52:42.419Z,100.00
2018-09-13T17:55:11.640Z,100.00
2018-09-13T17:57:40.924Z,100.00
2018-09-13T18:00:11.277Z,100.00
2018-09-13T18:02:40.461Z,100.00
2018-09-13T18:05:09.921Z,100.00
2018-09-13T18:07:39.036Z,100.00
2018-09-13T18:10:08.481Z,100.00
2018-09-13T18:12:37.881Z,100.00
2018-09-13T18:15:14.626Z,100.00
2018-09-13T18:17:44.144Z,100.00
2018-09-13T18:20:14.173Z,100.00
2018-09-13T18:22:43.752Z,100.00
2018-09-13T18:25:12.892Z,100.00
2018-09-13T18:27:42.356Z,100.00
2018-09-13T18:30:11.701Z,100.00
2018-09-13T18:32:41.128Z,100.00
2018-09-13T18:35:10.376Z,100.00
2018-09-13T18:37:39.740Z,100.00
2018-09-13T18:40:09.685Z,100.00
2018-09-13T18:42:39.060Z,100.00
2018-09-13T18:45:08.306Z,100.00
2018-09-13T18:47:37.548Z,100.00
2018-09-13T18:50:06.903Z,100.00
2018-09-13T18:52:36.165Z,100.00
2018-09-13T18:55:05.604Z,100.00
2018-09-13T18:57:34.953Z,100.00
2018-09-13T19:00:04.522Z,100.00
2018-09-13T19:02:33.667Z,100.00
2018-09-13T19:05:02.895Z,100.00
2018-09-13T19:07:32.083Z,100.00
2018-09-13T19:10:01.234Z,100.00
2018-09-13T19:12:30.507Z,100.00
2018-09-13T19:14:59.811Z,100.00
2018-09-13T19:17:29.195Z,100.00
2018-09-13T19:19:58.364Z,100.00
2018-09-13T19:22:31.348Z,100.00
2018-09-13T19:25:00.548Z,100.00
2018-09-13T19:27:29.879Z,100.00
2018-09-13T19:30:00.265Z,100.00
2018-09-13T19:32:29.768Z,100.00
2018-09-13T19:34:58.984Z,100.00
2018-09-13T19:37:28.222Z,100.00
2018-09-13T19:39:57.471Z,100.00
2018-09-13T19:42:26.693Z,100.00
2018-09-13T19:44:55.964Z,100.00
2018-09-13T19:47:25.284Z,100.00
2018-09-13T19:49:54.468Z,100.00
2018-09-13T19:52:23.484Z,100.00
2018-09-13T19:54:52.771Z,100.00
2018-09-13T19:57:21.904Z,100.00
2018-09-13T19:59:50.952Z,100.00
2018-09-13T20:02:20.191Z,100.00
2018-09-13T20:04:49.856Z,100.00
2018-09-13T20:07:19.028Z,100.00
2018-09-13T20:09:48.360Z,100.00
2018-09-13T20:12:17.854Z,100.00
2018-09-13T20:14:46.980Z,100.00
2018-09-13T20:17:16.190Z,100.00
2018-09-13T20:19:45.576Z,100.00
2018-09-13T20:22:14.887Z,100.00
2018-09-13T20:24:44.116Z,100.00
2018-09-13T20:27:13.759Z,100.00
2018-09-13T20:29:43.426Z,100.00
2018-09-13T20:32:12.675Z,100.00
2018-09-13T20:34:41.892Z,100.00
2018-09-13T20:37:11.104Z,100.00
2018-09-13T20:39:40.343Z,100.00
2018-09-13T20:42:09.481Z,100.00
2018-09-13T20:44:38.673Z,100.00
2018-09-13T20:47:08.199Z,100.00
2018-09-13T20:49:37.160Z,100.00
2018-09-13T20:52:06.278Z,100.00
2018-09-13T20:54:35.509Z,100.00
2018-09-13T20:57:04.988Z,100.00
2018-09-13T20:59:39.280Z,100.00
2018-09-13T21:02:09.058Z,100.00
2018-09-13T21:04:38.202Z,100.00
2018-09-13T21:07:07.343Z,100.00
2018-09-13T21:09:36.812Z,100.00
2018-09-13T21:12:05.931Z,100.00
2018-09-13T21:14:35.297Z,100.00
2018-09-13T21:17:04.968Z,100.00
2018-09-13T21:19:34.125Z,100.00
2018-09-13T21:22:03.217Z,100.00
2018-09-13T21:24:32.606Z,100.00
2018-09-13T21:27:08.542Z,100.00
2018-09-13T21:29:39.744Z,100.00
2018-09-13T21:32:09.133Z,100.00
2018-09-13T21:34:38.488Z,100.00
2018-09-13T21:37:07.820Z,100.00
2018-09-13T21:39:37.016Z,100.00
2018-09-13T21:42:06.424Z,100.00
2018-09-13T21:44:35.592Z,100.00
2018-09-13T21:47:05.031Z,100.00
2018-09-13T21:49:34.799Z,100.00
2018-09-13T21:52:04.074Z,100.00
2018-09-13T21:54:34.068Z,100.00
2018-09-13T21:57:03.623Z,100.00
2018-09-13T21:59:32.917Z,100.00
2018-09-13T22:02:02.156Z,100.00
2018-09-13T22:04:31.341Z,100.00
2018-09-13T22:07:00.610Z,100.00
2018-09-13T22:09:29.917Z,100.00
2018-09-13T22:11:59.143Z,100.00
2018-09-13T22:14:28.460Z,100.00
2018-09-13T22:16:57.570Z,100.00
2018-09-13T22:19:26.905Z,100.00
2018-09-13T22:21:56.140Z,100.00
2018-09-13T22:24:25.100Z,100.00
2018-09-13T22:26:54.368Z,100.00
2018-09-13T22:29:23.716Z,100.00
2018-09-13T22:31:52.948Z,100.00
2018-09-13T22:34:22.316Z,100.00
2018-09-13T22:36:51.659Z,100.00
2018-09-13T22:39:20.841Z,100.00
2018-09-13T22:41:50.439Z,100.00
2018-09-13T22:44:19.636Z,100.00
2018-09-13T22:46:48.836Z,100.00
2018-09-13T22:49:18.028Z,100.00
2018-09-13T22:51:47.238Z,100.00
2018-09-13T22:54:16.417Z,100.00
2018-09-13T22:56:45.840Z,100.00
2018-09-13T22:59:15.103Z,100.00
2018-09-13T23:01:44.644Z,100.00
2018-09-13T23:04:13.925Z,100.00
2018-09-13T23:06:43.220Z,100.00
2018-09-13T23:09:13.056Z,100.00
2018-09-13T23:11:42.372Z,100.00
2018-09-13T23:14:11.736Z,100.00
2018-09-13T23:16:41.060Z,100.00
2018-09-13T23:19:10.172Z,100.00
2018-09-13T23:21:39.577Z,100.00
2018-09-13T23:24:08.845Z,100.00
2018-09-13T23:26:38.347Z,100.00
2018-09-13T23:29:07.948Z,100.00
2018-09-13T23:31:38.121Z,100.00
2018-09-13T23:34:07.452Z,100.00
2018-09-13T23:36:36.575Z,100.00
2018-09-13T23:39:08.684Z,100.00
2018-09-13T23:41:38.359Z,100.00
2018-09-13T23:44:07.521Z,100.00
2018-09-13T23:46:37.209Z,100.00
2018-09-13T23:49:06.539Z,100.00
2018-09-13T23:51:35.761Z,100.00
2018-09-13T23:54:05.127Z,100.00
2018-09-13T23:56:34.468Z,100.00
2018-09-13T23:59:03.732Z,100.00
